Overview Statistics Trail Chart Weather Telemetry Raw packets
 

This is the latest recevied weather packets stored in our database for station/object OM5ZU-10. If no packets are shown the sender has not sent any weather packets the latest 10 day(s).

<< 24 25 26 27 28 29 30 >>
Time Temp. Humidity Pressure Rain* Wind** Luminosity Snow
1788000672 26.67° C 48% 1016.3 hPa - - - -
1787999772 26.11° C 49% 1016.3 hPa - - - -
1787998872 25° C 52% 1016.1 hPa - - - -
1787997972 26.67° C 49% 1016 hPa - - - -
1787997071 26.67° C 48% 1015.9 hPa - - - -
1787996171 25.56° C 52% 1016 hPa - - - -
1787995271 24.44° C 53% 1016.1 hPa - - - -
1787994371 23.89° C 55% 1016 hPa - - - -
1787993471 26.11° C 50% 1016.1 hPa - - - -
1787992571 26.11° C 50% 1016.1 hPa - - - -
1787991670 25° C 50% 1016.1 hPa - - - -
1787990770 23.89° C 52% 1015.8 hPa - - - -
1787989870 23.89° C 54% 1015.9 hPa - - - -
1787988970 21.67° C 58% 1015.4 hPa - - - -
1787988070 22.22° C 58% 1015.3 hPa - - - -
1787987170 21.67° C 59% 1015.4 hPa - - - -
1787986270 21.11° C 64% 1015.6 hPa - - - -
1787985369 21.67° C 65% 1015.4 hPa - - - -
1787984469 21.11° C 63% 1015.2 hPa - - - -
1787983569 22.22° C 67% 1014.9 hPa - - - -
1787982669 21.11° C 71% 1014.8 hPa - - - -
1787981769 23.89° C 62% 1013.8 hPa - - - -
1787980869 20.56° C 72% 1014 hPa - - - -
1787979968 20° C 75% 1014.1 hPa - - - -
1787979068 20° C 74% 1014 hPa - - - -

* Rain since midnight (hover to see other rain measurements)
** Current wind speed in m/s (hover to see current wind gust speed)